Time;durP1;ratioP1;P1;durP2;ratioP2;P2;SDS_P1;SDS_P2;PMS_P1;PMS_P2;Temp;Humidity;BMP_temperature;BMP_pressure;BME280_temperature;BME280_humidity;BME280_pressure;Samples;Min_cycle;Max_cycle;Signal;HPM_P1;HPM_P2
2023/05/23 02:56:52;;;;;;;;;;;;;;;;;;;;;
2023/05/23 03:00:19;;;;;;;;;;;;;;;;;;;;;
2023/05/23 03:03:23;;;;;;;;;;;11.80;99.90;;;;;;4845652;29;20009;-86
2023/05/23 03:10:22;;;;;;;;;;;;;;;;;;;;;
2023/05/23 04:55:15;;;;;;;;;;;11.20;99.90;;;;;;4876462;29;19922;-86
2023/05/23 06:05:17;;;;;;;;;;;;;;;;;;;;;
2023/05/23 06:19:56;;;;;;;;;;;11.30;99.90;;;;;;4814075;29;19967;-84
2023/05/23 06:33:20;;;;;;;;;;;11.50;99.90;;;;;;4801918;29;20415;-87
2023/05/23 07:08:14;;;;;;;;;;;;;;;;;;;;;
2023/05/23 07:26:01;;;;;;;;;;;;;;;;;;;;;
2023/05/23 12:21:53;;;;;;;;;;;14.80;99.90;;;;;;4893390;29;20029;-88
2023/05/23 12:24:42;;;;;;;;;;;15.20;99.90;;;;;;4841749;29;19928;-87
2023/05/23 12:27:10;;;;;;;;;;;14.60;99.90;;;;;;4871638;29;19916;-87
2023/05/23 12:29:48;;;;;;;;;;;14.40;99.90;;;;;;4885516;29;19955;-86
2023/05/23 12:32:26;;;;;;;;;;;14.20;99.90;;;;;;4855025;29;19932;-86
2023/05/23 15:35:11;;;;;;;;;;;14.90;97.40;;;;;;4896855;29;20236;-86
2023/05/23 15:51:52;;;;;;;;;;;13.90;99.60;;;;;;4924334;29;20346;-88
2023/05/23 15:55:07;;;;;;;;;;;13.70;98.90;;;;;;4799041;30;19973;-86
2023/05/23 15:58:13;;;;;;;;;;;13.50;98.90;;;;;;4804764;29;19969;-88
2023/05/23 16:39:10;;;;;;;;;;;13.30;99.90;;;;;;5120860;23;20344;-87
2023/05/23 16:49:12;;;;;;;;;;;13.70;99.90;;;;;;4818635;29;19970;-86
2023/05/23 16:52:11;;;;;;;;;;;12.30;99.90;;;;;;4837028;29;19929;-87
2023/05/23 17:20:22;;;;;;;;;;;12.20;99.90;;;;;;4856407;29;20798;-85
2023/05/23 17:42:40;;;;;;;;;;;12.80;99.90;;;;;;5080552;23;20036;-86
2023/05/23 19:06:16;;;;;;;;;;;11.40;99.90;;;;;;4678473;23;19991;-86
2023/05/23 19:09:22;;;;;;;;;;;11.40;99.90;;;;;;4817424;29;20027;-86
2023/05/23 19:15:44;;;;;;;;;;;10.80;99.90;;;;;;4905678;29;20014;-87
2023/05/23 20:08:46;;;;;;;;;;;10.60;99.90;;;;;;4904777;29;19939;-77
2023/05/23 20:11:12;;;;;;;;;;;10.60;99.90;;;;;;4895772;29;19930;-78
2023/05/23 20:13:37;;;;;;;;;;;10.60;99.90;;;;;;4914896;29;20022;-77
2023/05/23 20:16:03;;;;;;;;;;;10.50;99.90;;;;;;4906784;29;19928;-76
2023/05/23 20:18:28;;;;;;;;;;;10.50;99.90;;;;;;4912839;29;19974;-77
2023/05/23 20:20:54;;;;;;;;;;;10.50;99.90;;;;;;4902621;29;19938;-76
2023/05/23 20:23:20;;;;;;;;;;;10.50;99.90;;;;;;4909738;29;19993;-76
2023/05/23 20:25:45;;;;;;;;;;;10.50;99.90;;;;;;4905219;29;19975;-77
2023/05/23 20:28:11;;;;;;;;;;;10.40;99.90;;;;;;4895841;29;19940;-77
2023/05/23 20:30:36;;;;;;;;;;;10.80;99.90;;;;;;4904279;29;19928;-77
2023/05/23 20:33:02;;;;;;;;;;;10.30;99.90;;;;;;4913605;29;19927;-77
2023/05/23 20:35:28;;;;;;;;;;;10.30;99.90;;;;;;4909714;29;19942;-76
2023/05/23 20:37:53;;;;;;;;;;;10.30;99.90;;;;;;4916834;29;20349;-77
2023/05/23 20:40:19;;;;;;;;;;;10.20;99.90;;;;;;4915546;29;20004;-76
2023/05/23 20:42:45;;;;;;;;;;;10.20;99.90;;;;;;4909405;29;19934;-78
2023/05/23 20:45:10;;;;;;;;;;;10.20;99.90;;;;;;4907792;29;19939;-77
2023/05/23 20:47:40;;;;;;;;;;;10.20;99.90;;;;;;4898809;29;19938;-76
2023/05/23 20:50:08;;;;;;;;;;;10.10;99.90;;;;;;4887214;29;19939;-76
2023/05/23 20:52:35;;;;;;;;;;;10.10;99.90;;;;;;4912195;29;19935;-76
2023/05/23 20:55:01;;;;;;;;;;;10.10;99.90;;;;;;4908972;29;19971;-77
2023/05/23 20:57:27;;;;;;;;;;;10.10;99.90;;;;;;4915279;29;19966;-77
2023/05/23 20:59:52;;;;;;;;;;;10.40;99.90;;;;;;4913641;29;20005;-77
2023/05/23 21:02:18;;;;;;;;;;;10.10;99.90;;;;;;4914797;29;19927;-77
2023/05/23 21:04:43;;;;;;;;;;;10.00;99.90;;;;;;4913267;29;19979;-76
2023/05/23 21:07:09;;;;;;;;;;;10.00;99.90;;;;;;4890230;29;19934;-77
2023/05/23 21:09:35;;;;;;;;;;;10.00;99.90;;;;;;4915862;29;19929;-77
2023/05/23 21:12:00;;;;;;;;;;;10.00;99.90;;;;;;4918985;29;19938;-77
2023/05/23 21:14:26;;;;;;;;;;;9.90;99.90;;;;;;4927030;29;19966;-78
2023/05/23 21:16:51;;;;;;;;;;;9.90;99.90;;;;;;4897978;29;19927;-78
2023/05/23 21:19:17;;;;;;;;;;;10.20;99.90;;;;;;4915054;29;20017;-76
2023/05/23 21:21:42;;;;;;;;;;;9.90;99.90;;;;;;4919900;29;20014;-77
2023/05/23 21:24:08;;;;;;;;;;;10.00;99.90;;;;;;4892700;29;19938;-76
2023/05/23 21:26:33;;;;;;;;;;;9.80;99.90;;;;;;4905879;29;20345;-77
2023/05/23 21:28:59;;;;;;;;;;;9.80;99.90;;;;;;4889995;29;19931;-76
2023/05/23 21:31:25;;;;;;;;;;;9.80;99.90;;;;;;4892858;29;19966;-76
2023/05/23 21:33:50;;;;;;;;;;;9.80;99.90;;;;;;4911845;29;19931;-77
2023/05/23 21:36:16;;;;;;;;;;;9.80;99.90;;;;;;4909691;29;19991;-77
2023/05/23 21:38:41;;;;;;;;;;;9.80;99.90;;;;;;4902274;29;20023;-76
2023/05/23 21:41:07;;;;;;;;;;;9.80;99.90;;;;;;4913250;29;19974;-76
2023/05/23 21:43:33;;;;;;;;;;;9.70;99.90;;;;;;4912550;29;19982;-76
2023/05/23 21:45:58;;;;;;;;;;;9.70;99.90;;;;;;4913344;29;19927;-76
2023/05/23 21:48:24;;;;;;;;;;;9.70;99.90;;;;;;4901165;29;19931;-76
2023/05/23 21:50:49;;;;;;;;;;;9.60;99.90;;;;;;4909192;29;19951;-77
2023/05/23 21:53:15;;;;;;;;;;;9.70;99.90;;;;;;4917552;29;20003;-75
2023/05/23 21:55:40;;;;;;;;;;;9.60;99.90;;;;;;4918404;29;19970;-75
2023/05/23 21:58:06;;;;;;;;;;;9.80;99.90;;;;;;4906218;29;19970;-75
2023/05/23 22:00:31;;;;;;;;;;;9.60;99.90;;;;;;4918838;29;19927;-75
2023/05/23 22:02:57;;;;;;;;;;;9.50;99.90;;;;;;4906815;29;19928;-76
2023/05/23 22:05:22;;;;;;;;;;;9.50;99.90;;;;;;4916111;29;20021;-76
2023/05/23 22:07:48;;;;;;;;;;;9.50;99.90;;;;;;4869632;29;19935;-76
2023/05/23 22:10:13;;;;;;;;;;;9.50;99.90;;;;;;4906576;29;20022;-76
2023/05/23 22:12:39;;;;;;;;;;;9.40;99.90;;;;;;4915609;29;19927;-75
2023/05/23 22:15:05;;;;;;;;;;;9.50;99.90;;;;;;4917802;29;19950;-76
2023/05/23 22:17:32;;;;;;;;;;;9.40;99.90;;;;;;4919697;29;19986;-75
2023/05/23 22:19:59;;;;;;;;;;;9.40;99.90;;;;;;4914436;29;19994;-76
2023/05/23 22:22:25;;;;;;;;;;;9.40;99.90;;;;;;4918010;29;20377;-76
2023/05/23 22:24:51;;;;;;;;;;;9.40;99.90;;;;;;4918128;29;19942;-76
2023/05/23 22:27:17;;;;;;;;;;;9.40;99.90;;;;;;4917454;29;19939;-76
2023/05/23 22:29:42;;;;;;;;;;;9.30;99.90;;;;;;4915196;29;19950;-76
2023/05/23 22:32:08;;;;;;;;;;;9.40;99.90;;;;;;4904534;29;20316;-76
2023/05/23 22:34:33;;;;;;;;;;;9.40;99.90;;;;;;4917889;29;19999;-77
2023/05/23 22:37:00;;;;;;;;;;;9.40;99.90;;;;;;4916242;29;19927;-76
2023/05/23 22:39:26;;;;;;;;;;;9.40;99.90;;;;;;4911045;29;19927;-76
2023/05/23 22:41:51;;;;;;;;;;;9.40;99.90;;;;;;4917973;29;19934;-75
2023/05/23 22:44:16;;;;;;;;;;;9.30;99.90;;;;;;4909097;29;20016;-75
2023/05/23 22:46:42;;;;;;;;;;;9.30;99.90;;;;;;4909893;29;20304;-77
2023/05/23 22:49:08;;;;;;;;;;;9.30;99.90;;;;;;4908670;29;19945;-76
2023/05/23 22:51:33;;;;;;;;;;;9.40;99.90;;;;;;4912021;29;19934;-76
2023/05/23 22:53:59;;;;;;;;;;;9.30;99.90;;;;;;4914571;29;19943;-75
2023/05/23 22:56:25;;;;;;;;;;;9.30;99.90;;;;;;4916475;29;19934;-76
2023/05/23 22:58:51;;;;;;;;;;;9.30;99.90;;;;;;4913045;29;19935;-76
2023/05/23 23:01:17;;;;;;;;;;;9.30;99.90;;;;;;4914514;29;19927;-76
2023/05/23 23:03:42;;;;;;;;;;;9.30;99.90;;;;;;4906778;29;19927;-77
2023/05/23 23:06:08;;;;;;;;;;;9.30;99.90;;;;;;4915967;29;19935;-76
2023/05/23 23:08:34;;;;;;;;;;;9.30;99.90;;;;;;4898595;29;19927;-76
2023/05/23 23:10:59;;;;;;;;;;;9.30;99.90;;;;;;4915545;29;20348;-77
2023/05/23 23:13:25;;;;;;;;;;;9.30;99.90;;;;;;4917592;29;19990;-77
2023/05/23 23:15:51;;;;;;;;;;;9.30;99.90;;;;;;4917212;29;19931;-76
2023/05/23 23:18:17;;;;;;;;;;;9.30;99.90;;;;;;4897894;29;19934;-76
2023/05/23 23:20:43;;;;;;;;;;;9.30;99.90;;;;;;4917190;29;19927;-76
2023/05/23 23:23:09;;;;;;;;;;;9.30;99.90;;;;;;4904163;29;20014;-76
2023/05/23 23:25:35;;;;;;;;;;;9.20;99.90;;;;;;4906980;29;19935;-77
2023/05/23 23:28:00;;;;;;;;;;;9.20;99.90;;;;;;4915687;29;19927;-77
2023/05/23 23:30:26;;;;;;;;;;;9.30;99.90;;;;;;4898207;29;19974;-77
2023/05/23 23:32:51;;;;;;;;;;;9.30;99.90;;;;;;4908140;29;19927;-76
2023/05/23 23:35:17;;;;;;;;;;;9.30;99.90;;;;;;4905352;29;20001;-76
2023/05/23 23:37:42;;;;;;;;;;;9.30;99.90;;;;;;4915344;29;19974;-76
2023/05/23 23:40:08;;;;;;;;;;;9.30;99.90;;;;;;4917889;29;19934;-76
2023/05/23 23:42:34;;;;;;;;;;;9.30;99.90;;;;;;4908354;29;19934;-76
2023/05/23 23:45:00;;;;;;;;;;;9.30;99.90;;;;;;4916421;29;20021;-77
2023/05/23 23:47:25;;;;;;;;;;;9.30;99.90;;;;;;4908130;29;19983;-76
2023/05/23 23:49:51;;;;;;;;;;;9.40;99.90;;;;;;4900373;29;19935;-76
2023/05/23 23:52:16;;;;;;;;;;;9.30;99.90;;;;;;4888448;29;19972;-76
2023/05/23 23:54:42;;;;;;;;;;;9.30;99.90;;;;;;4914257;29;19938;-76
2023/05/23 23:57:12;;;;;;;;;;;9.40;99.90;;;;;;4911305;29;19928;-76
2023/05/23 23:59:41;;;;;;;;;;;9.30;99.90;;;;;;4915551;29;19927;-76
